sensor_id;sensor_type;location;lat;lon;timestamp;pressure;altitude;pressure_sealevel;temperature;humidity
21803;BME280;18591;47.080;22.214;2023-02-14T00:01:55;101314.44;;;4.55;57.95
21803;BME280;18591;47.080;22.214;2023-02-14T00:03:57;101312.63;;;4.53;58.38
21803;BME280;18591;47.080;22.214;2023-02-14T00:06:09;101311.63;;;4.45;58.72
21803;BME280;18591;47.080;22.214;2023-02-14T00:08:14;101306.38;;;4.51;58.71
21803;BME280;18591;47.080;22.214;2023-02-14T00:10:17;101305.56;;;4.55;58.04
21803;BME280;18591;47.080;22.214;2023-02-14T00:12:20;101304.66;;;4.56;58.54
21803;BME280;18591;47.080;22.214;2023-02-14T00:14:22;101308.25;;;4.59;58.21
21803;BME280;18591;47.080;22.214;2023-02-14T00:16:45;101309.06;;;4.52;58.51
21803;BME280;18591;47.080;22.214;2023-02-14T00:18:47;101315.28;;;4.54;58.32
21803;BME280;18591;47.080;22.214;2023-02-14T00:21:04;101317.94;;;4.53;58.38
21803;BME280;18591;47.080;22.214;2023-02-14T00:23:06;101306.34;;;4.49;58.46
21803;BME280;18591;47.080;22.214;2023-02-14T00:25:08;101312.50;;;4.47;58.39
21803;BME280;18591;47.080;22.214;2023-02-14T00:27:10;101316.94;;;4.46;58.55
21803;BME280;18591;47.080;22.214;2023-02-14T00:29:15;101312.47;;;4.44;58.56
21803;BME280;18591;47.080;22.214;2023-02-14T00:31:17;101316.00;;;4.43;58.81
21803;BME280;18591;47.080;22.214;2023-02-14T00:33:22;101319.69;;;4.51;58.64
21803;BME280;18591;47.080;22.214;2023-02-14T00:35:24;101325.94;;;4.53;58.39
21803;BME280;18591;47.080;22.214;2023-02-14T00:37:28;101324.97;;;4.49;58.37
21803;BME280;18591;47.080;22.214;2023-02-14T00:39:30;101316.00;;;4.43;58.47
21803;BME280;18591;47.080;22.214;2023-02-14T00:41:32;101317.78;;;4.44;59.06
21803;BME280;18591;47.080;22.214;2023-02-14T00:43:34;101315.13;;;4.42;59.08
21803;BME280;18591;47.080;22.214;2023-02-14T00:45:36;101316.94;;;4.45;58.97
21803;BME280;18591;47.080;22.214;2023-02-14T00:47:38;101311.72;;;4.52;58.27
21803;BME280;18591;47.080;22.214;2023-02-14T00:49:41;101300.16;;;4.50;58.64
21803;BME280;18591;47.080;22.214;2023-02-14T00:51:43;101289.50;;;4.52;58.59
21803;BME280;18591;47.080;22.214;2023-02-14T00:53:47;101277.16;;;4.55;58.63
21803;BME280;18591;47.080;22.214;2023-02-14T00:55:49;101267.47;;;4.61;58.17
21803;BME280;18591;47.080;22.214;2023-02-14T00:57:54;101271.72;;;4.49;58.41
21803;BME280;18591;47.080;22.214;2023-02-14T00:59:57;101265.63;;;4.56;58.31
21803;BME280;18591;47.080;22.214;2023-02-14T01:02:00;101282.59;;;4.63;58.17
21803;BME280;18591;47.080;22.214;2023-02-14T01:04:03;101293.22;;;4.60;58.43
21803;BME280;18591;47.080;22.214;2023-02-14T01:06:06;101291.41;;;4.59;58.36
21803;BME280;18591;47.080;22.214;2023-02-14T01:08:09;101287.81;;;4.57;58.60
21803;BME280;18591;47.080;22.214;2023-02-14T01:10:11;101270.16;;;4.64;58.05
21803;BME280;18591;47.080;22.214;2023-02-14T01:12:14;101275.56;;;4.68;58.25
21803;BME280;18591;47.080;22.214;2023-02-14T01:14:18;101272.97;;;4.73;58.10
21803;BME280;18591;47.080;22.214;2023-02-14T01:16:22;101273.91;;;4.76;57.83
21803;BME280;18591;47.080;22.214;2023-02-14T01:18:24;101262.22;;;4.65;58.38
21803;BME280;18591;47.080;22.214;2023-02-14T01:20:26;101254.31;;;4.71;57.81
21803;BME280;18591;47.080;22.214;2023-02-14T01:22:29;101260.34;;;4.58;59.01
21803;BME280;18591;47.080;22.214;2023-02-14T01:24:35;101257.00;;;4.74;58.32
21803;BME280;18591;47.080;22.214;2023-02-14T01:26:37;101248.25;;;4.85;57.99
21803;BME280;18591;47.080;22.214;2023-02-14T01:28:40;101244.66;;;4.81;57.87
21803;BME280;18591;47.080;22.214;2023-02-14T01:30:42;101247.22;;;4.75;58.25
21803;BME280;18591;47.080;22.214;2023-02-14T01:32:45;101248.16;;;4.77;58.60
21803;BME280;18591;47.080;22.214;2023-02-14T01:34:47;101261.28;;;4.63;59.92
21803;BME280;18591;47.080;22.214;2023-02-14T01:36:49;101252.69;;;4.84;58.94
21803;BME280;18591;47.080;22.214;2023-02-14T01:38:55;101242.03;;;4.84;58.93
21803;BME280;18591;47.080;22.214;2023-02-14T01:40:57;101242.00;;;4.83;59.16
21803;BME280;18591;47.080;22.214;2023-02-14T01:43:04;101242.84;;;4.80;59.18
21803;BME280;18591;47.080;22.214;2023-02-14T01:45:19;101249.00;;;4.74;59.58
21803;BME280;18591;47.080;22.214;2023-02-14T01:47:22;101236.69;;;4.83;58.90
21803;BME280;18591;47.080;22.214;2023-02-14T01:49:34;101239.31;;;4.79;58.72
21803;BME280;18591;47.080;22.214;2023-02-14T01:51:43;101234.03;;;4.84;58.70
21803;BME280;18591;47.080;22.214;2023-02-14T01:53:48;101237.66;;;4.89;58.60
21803;BME280;18591;47.080;22.214;2023-02-14T01:56:02;101239.44;;;4.90;58.83
21803;BME280;18591;47.080;22.214;2023-02-14T01:58:23;101232.34;;;4.89;58.37
21803;BME280;18591;47.080;22.214;2023-02-14T02:00:26;101242.13;;;4.92;58.36
21803;BME280;18591;47.080;22.214;2023-02-14T02:02:47;101240.34;;;4.92;58.66
21803;BME280;18591;47.080;22.214;2023-02-14T02:04:55;101235.81;;;4.84;58.79
21803;BME280;18591;47.080;22.214;2023-02-14T02:07:02;101237.41;;;4.69;59.26
21803;BME280;18591;47.080;22.214;2023-02-14T02:11:23;101243.78;;;4.82;58.65
21803;BME280;18591;47.080;22.214;2023-02-14T02:13:25;101240.28;;;4.88;58.68
21803;BME280;18591;47.080;22.214;2023-02-14T02:15:31;101254.56;;;4.91;58.31
21803;BME280;18591;47.080;22.214;2023-02-14T02:18:15;101252.63;;;4.79;58.89
21803;BME280;18591;47.080;22.214;2023-02-14T02:41:25;101240.25;;;4.85;59.12
21803;BME280;18591;47.080;22.214;2023-02-14T02:43:57;101242.00;;;4.81;59.55
21803;BME280;18591;47.080;22.214;2023-02-14T02:46:11;101248.28;;;4.86;58.77
21803;BME280;18591;47.080;22.214;2023-02-14T02:48:42;101248.31;;;4.89;58.55
21803;BME280;18591;47.080;22.214;2023-02-14T02:50:52;101243.88;;;4.90;58.67
21803;BME280;18591;47.080;22.214;2023-02-14T02:56:31;101243.84;;;4.87;58.64
21803;BME280;18591;47.080;22.214;2023-02-14T03:01:12;101245.41;;;4.72;58.91
21803;BME280;18591;47.080;22.214;2023-02-14T03:03:15;101247.44;;;4.89;58.41
21803;BME280;18591;47.080;22.214;2023-02-14T03:05:36;101240.34;;;4.91;58.23
21803;BME280;18591;47.080;22.214;2023-02-14T03:07:38;101249.09;;;4.82;58.84
21803;BME280;18591;47.080;22.214;2023-02-14T03:14:52;101230.38;;;4.74;58.82
21803;BME280;18591;47.080;22.214;2023-02-14T03:17:24;101246.34;;;4.73;58.76
21803;BME280;18591;47.080;22.214;2023-02-14T03:20:00;101243.81;;;4.84;58.53
21803;BME280;18591;47.080;22.214;2023-02-14T03:22:39;101242.84;;;4.78;58.67
21803;BME280;18591;47.080;22.214;2023-02-14T03:24:47;101234.09;;;4.89;58.09
21803;BME280;18591;47.080;22.214;2023-02-14T03:29:17;101235.72;;;4.77;58.56
21803;BME280;18591;47.080;22.214;2023-02-14T03:36:07;101244.56;;;4.73;59.32
21803;BME280;18591;47.080;22.214;2023-02-14T03:38:30;101245.50;;;4.75;59.18
21803;BME280;18591;47.080;22.214;2023-02-14T03:40:43;101241.00;;;4.71;59.21
21803;BME280;18591;47.080;22.214;2023-02-14T03:42:55;101232.19;;;4.77;58.75
21803;BME280;18591;47.080;22.214;2023-02-14T03:44:59;101239.28;;;4.76;58.88
21803;BME280;18591;47.080;22.214;2023-02-14T03:47:10;101233.94;;;4.76;58.77
21803;BME280;18591;47.080;22.214;2023-02-14T03:49:20;101239.25;;;4.73;59.56
21803;BME280;18591;47.080;22.214;2023-02-14T03:51:25;101230.41;;;4.76;59.14
21803;BME280;18591;47.080;22.214;2023-02-14T03:53:32;101226.84;;;4.77;58.93
21803;BME280;18591;47.080;22.214;2023-02-14T03:55:40;101228.47;;;4.64;59.44
21803;BME280;18591;47.080;22.214;2023-02-14T03:57:54;101229.44;;;4.71;59.22
21803;BME280;18591;47.080;22.214;2023-02-14T04:00:00;101226.78;;;4.72;59.19
21803;BME280;18591;47.080;22.214;2023-02-14T04:04:19;101226.78;;;4.71;59.21
21803;BME280;18591;47.080;22.214;2023-02-14T04:06:22;101226.97;;;4.88;58.59
21803;BME280;18591;47.080;22.214;2023-02-14T04:08:26;101224.31;;;4.86;58.81
21803;BME280;18591;47.080;22.214;2023-02-14T04:10:29;101226.97;;;4.86;58.83
21803;BME280;18591;47.080;22.214;2023-02-14T04:12:31;101224.25;;;4.82;59.11
21803;BME280;18591;47.080;22.214;2023-02-14T04:14:39;101230.47;;;4.82;58.60
21803;BME280;18591;47.080;22.214;2023-02-14T04:16:41;101232.25;;;4.82;58.64
21803;BME280;18591;47.080;22.214;2023-02-14T04:19:02;101229.50;;;4.75;58.87
21803;BME280;18591;47.080;22.214;2023-02-14T04:21:22;101223.38;;;4.83;58.59
21803;BME280;18591;47.080;22.214;2023-02-14T04:23:25;101230.31;;;4.70;59.28
21803;BME280;18591;47.080;22.214;2023-02-14T04:25:28;101231.31;;;4.78;58.68
21803;BME280;18591;47.080;22.214;2023-02-14T04:27:30;101237.56;;;4.82;58.90
21803;BME280;18591;47.080;22.214;2023-02-14T04:29:32;101230.50;;;4.85;58.85
21803;BME280;18591;47.080;22.214;2023-02-14T04:31:34;101230.47;;;4.82;58.94
21803;BME280;18591;47.080;22.214;2023-02-14T04:33:36;101231.31;;;4.79;58.93
21803;BME280;18591;47.080;22.214;2023-02-14T04:35:40;101228.75;;;4.86;58.91
21803;BME280;18591;47.080;22.214;2023-02-14T04:37:42;101235.81;;;4.84;58.91
21803;BME280;18591;47.080;22.214;2023-02-14T04:39:44;101230.44;;;4.79;58.83
21803;BME280;18591;47.080;22.214;2023-02-14T04:41:46;101238.47;;;4.84;58.56
21803;BME280;18591;47.080;22.214;2023-02-14T04:43:49;101234.94;;;4.85;58.52
21803;BME280;18591;47.080;22.214;2023-02-14T04:45:51;101237.56;;;4.82;58.94
21803;BME280;18591;47.080;22.214;2023-02-14T04:47:53;101233.19;;;4.87;58.86
21803;BME280;18591;47.080;22.214;2023-02-14T04:49:55;101227.84;;;4.85;58.75
21803;BME280;18591;47.080;22.214;2023-02-14T04:51:57;101242.09;;;4.89;58.51
21803;BME280;18591;47.080;22.214;2023-02-14T04:54:00;101233.13;;;4.82;58.53
21803;BME280;18591;47.080;22.214;2023-02-14T04:56:02;101226.88;;;4.78;58.70
21803;BME280;18591;47.080;22.214;2023-02-14T04:58:04;101226.97;;;4.86;58.73
21803;BME280;18591;47.080;22.214;2023-02-14T05:00:07;101226.06;;;4.84;58.69
21803;BME280;18591;47.080;22.214;2023-02-14T05:02:09;101231.31;;;4.79;58.97
21803;BME280;18591;47.080;22.214;2023-02-14T05:04:12;101225.97;;;4.76;59.27
21803;BME280;18591;47.080;22.214;2023-02-14T05:06:14;101236.75;;;4.86;58.82
21803;BME280;18591;47.080;22.214;2023-02-14T05:08:16;101232.28;;;4.83;59.14
21803;BME280;18591;47.080;22.214;2023-02-14T05:10:19;101235.91;;;4.91;58.78
21803;BME280;18591;47.080;22.214;2023-02-14T05:12:21;101238.56;;;4.88;59.07
21803;BME280;18591;47.080;22.214;2023-02-14T05:14:23;101242.78;;;4.74;59.26
21803;BME280;18591;47.080;22.214;2023-02-14T05:16:25;101240.19;;;4.78;59.15
21803;BME280;18591;47.080;22.214;2023-02-14T05:18:27;101249.94;;;4.76;59.36
21803;BME280;18591;47.080;22.214;2023-02-14T05:20:30;101237.41;;;4.68;59.81
21803;BME280;18591;47.080;22.214;2023-02-14T05:22:32;101255.34;;;4.84;59.23
21803;BME280;18591;47.080;22.214;2023-02-14T05:24:35;101250.06;;;4.86;58.99
21803;BME280;18591;47.080;22.214;2023-02-14T05:26:37;101249.03;;;4.76;59.51
21803;BME280;18591;47.080;22.214;2023-02-14T05:28:39;101250.91;;;4.83;59.36
21803;BME280;18591;47.080;22.214;2023-02-14T05:30:42;101256.94;;;4.68;59.97
21803;BME280;18591;47.080;22.214;2023-02-14T05:32:44;101258.81;;;4.75;59.43
21803;BME280;18591;47.080;22.214;2023-02-14T05:34:48;101249.00;;;4.74;59.31
21803;BME280;18591;47.080;22.214;2023-02-14T05:36:53;101257.94;;;4.78;59.21
21803;BME280;18591;47.080;22.214;2023-02-14T05:38:55;101259.66;;;4.73;59.55
21803;BME280;18591;47.080;22.214;2023-02-14T05:40:58;101267.75;;;4.80;59.16
21803;BME280;18591;47.080;22.214;2023-02-14T05:43:03;101265.13;;;4.85;59.09
21803;BME280;18591;47.080;22.214;2023-02-14T05:45:05;101259.75;;;4.80;59.22
21803;BME280;18591;47.080;22.214;2023-02-14T05:47:07;101258.69;;;4.69;59.72
21803;BME280;18591;47.080;22.214;2023-02-14T05:49:13;101263.31;;;4.81;59.28
21803;BME280;18591;47.080;22.214;2023-02-14T05:51:15;101265.06;;;4.79;59.67
21803;BME280;18591;47.080;22.214;2023-02-14T05:53:17;101260.66;;;4.83;59.55
21803;BME280;18591;47.080;22.214;2023-02-14T05:55:19;101256.97;;;4.71;59.76
21803;BME280;18591;47.080;22.214;2023-02-14T05:57:21;101252.63;;;4.79;59.62
21803;BME280;18591;47.080;22.214;2023-02-14T05:59:24;101260.59;;;4.76;59.89
21803;BME280;18591;47.080;22.214;2023-02-14T06:01:26;101256.19;;;4.80;59.77
21803;BME280;18591;47.080;22.214;2023-02-14T06:03:28;101266.03;;;4.86;59.42
21803;BME280;18591;47.080;22.214;2023-02-14T06:05:30;101263.31;;;4.83;59.31
21803;BME280;18591;47.080;22.214;2023-02-14T06:07:33;101260.63;;;4.79;59.50
21803;BME280;18591;47.080;22.214;2023-02-14T06:09:35;101266.94;;;4.86;59.20
21803;BME280;18591;47.080;22.214;2023-02-14T06:11:38;101256.25;;;4.85;59.57
21803;BME280;18591;47.080;22.214;2023-02-14T06:13:40;101261.53;;;4.82;59.42
21803;BME280;18591;47.080;22.214;2023-02-14T06:15:43;101258.06;;;4.86;59.21
21803;BME280;18591;47.080;22.214;2023-02-14T06:17:52;101260.66;;;4.83;59.47
21803;BME280;18591;47.080;22.214;2023-02-14T06:19:55;101257.16;;;4.87;59.51
21803;BME280;18591;47.080;22.214;2023-02-14T06:21:57;101261.56;;;4.85;59.35
21803;BME280;18591;47.080;22.214;2023-02-14T06:23:59;101259.91;;;4.94;59.12
21803;BME280;18591;47.080;22.214;2023-02-14T06:26:01;101259.78;;;4.85;59.51
21803;BME280;18591;47.080;22.214;2023-02-14T06:28:04;101258.91;;;4.85;59.58
21803;BME280;18591;47.080;22.214;2023-02-14T06:30:08;101255.38;;;4.87;59.29
21803;BME280;18591;47.080;22.214;2023-02-14T06:32:11;101258.09;;;4.89;59.65
21803;BME280;18591;47.080;22.214;2023-02-14T06:34:14;101259.00;;;4.92;59.40
21803;BME280;18591;47.080;22.214;2023-02-14T06:36:17;101247.50;;;4.93;59.31
21803;BME280;18591;47.080;22.214;2023-02-14T06:38:19;101245.63;;;4.88;59.53
21803;BME280;18591;47.080;22.214;2023-02-14T06:40:22;101255.47;;;4.93;59.13
21803;BME280;18591;47.080;22.214;2023-02-14T06:42:25;101254.56;;;4.91;59.66
21803;BME280;18591;47.080;22.214;2023-02-14T06:44:27;101246.63;;;4.96;59.39
21803;BME280;18591;47.080;22.214;2023-02-14T06:46:29;101246.44;;;4.80;59.83
21803;BME280;18591;47.080;22.214;2023-02-14T06:48:31;101254.53;;;4.88;59.65
21803;BME280;18591;47.080;22.214;2023-02-14T06:50:34;101255.38;;;4.87;60.00
21803;BME280;18591;47.080;22.214;2023-02-14T06:52:36;101248.41;;;4.97;59.85
21803;BME280;18591;47.080;22.214;2023-02-14T06:54:38;101246.59;;;4.94;59.63
21803;BME280;18591;47.080;22.214;2023-02-14T06:56:41;101243.97;;;4.96;59.37
21803;BME280;18591;47.080;22.214;2023-02-14T06:58:43;101245.75;;;4.97;59.31
21803;BME280;18591;47.080;22.214;2023-02-14T07:00:46;101243.97;;;4.97;59.61
21803;BME280;18591;47.080;22.214;2023-02-14T07:02:48;101248.41;;;4.97;59.46
21803;BME280;18591;47.080;22.214;2023-02-14T07:04:50;101247.53;;;4.96;59.87
21803;BME280;18591;47.080;22.214;2023-02-14T07:06:52;101256.47;;;5.01;59.34
21803;BME280;18591;47.080;22.214;2023-02-14T07:08:55;101242.25;;;5.01;59.60
21803;BME280;18591;47.080;22.214;2023-02-14T07:10:57;101249.31;;;4.99;59.68
21803;BME280;18591;47.080;22.214;2023-02-14T07:13:00;101251.16;;;5.05;59.57
21803;BME280;18591;47.080;22.214;2023-02-14T07:15:02;101234.22;;;4.99;59.47
21803;BME280;18591;47.080;22.214;2023-02-14T07:17:04;101238.75;;;5.08;59.58
21803;BME280;18591;47.080;22.214;2023-02-14T07:19:06;101231.69;;;5.10;59.39
21803;BME280;18591;47.080;22.214;2023-02-14T07:21:09;101243.19;;;5.08;59.49
21803;BME280;18591;47.080;22.214;2023-02-14T07:23:11;101241.31;;;4.97;60.19
21803;BME280;18591;47.080;22.214;2023-02-14T07:25:13;101241.38;;;5.02;60.09
21803;BME280;18591;47.080;22.214;2023-02-14T07:27:16;101239.59;;;5.02;59.97
21803;BME280;18591;47.080;22.214;2023-02-14T07:29:18;101248.44;;;4.98;60.05
21803;BME280;18591;47.080;22.214;2023-02-14T07:31:20;101245.81;;;5.01;60.29
21803;BME280;18591;47.080;22.214;2023-02-14T07:33:24;101246.84;;;5.14;59.72
21803;BME280;18591;47.080;22.214;2023-02-14T07:35:26;101247.84;;;5.24;59.33
21803;BME280;18591;47.080;22.214;2023-02-14T07:37:32;101246.78;;;5.10;60.17
21803;BME280;18591;47.080;22.214;2023-02-14T07:39:34;101238.81;;;5.13;59.84
21803;BME280;18591;47.080;22.214;2023-02-14T07:41:36;101243.19;;;5.06;60.30
21803;BME280;18591;47.080;22.214;2023-02-14T07:43:43;101253.09;;;5.18;60.33
21803;BME280;18591;47.080;22.214;2023-02-14T07:45:45;101243.38;;;5.21;59.93
21803;BME280;18591;47.080;22.214;2023-02-14T07:47:49;101251.19;;;5.08;60.35
21803;BME280;18591;47.080;22.214;2023-02-14T07:49:52;101254.66;;;4.99;60.79
21803;BME280;18591;47.080;22.214;2023-02-14T07:51:54;101251.16;;;5.05;61.05
21803;BME280;18591;47.080;22.214;2023-02-14T07:53:56;101245.13;;;5.21;60.48
21803;BME280;18591;47.080;22.214;2023-02-14T07:56:01;101253.19;;;5.27;60.27
21803;BME280;18591;47.080;22.214;2023-02-14T07:58:03;101243.41;;;5.26;60.35
21803;BME280;18591;47.080;22.214;2023-02-14T08:00:06;101250.47;;;5.22;60.64
21803;BME280;18591;47.080;22.214;2023-02-14T08:02:14;101244.25;;;5.22;60.71
21803;BME280;18591;47.080;22.214;2023-02-14T08:04:16;101241.47;;;5.13;60.89
21803;BME280;18591;47.080;22.214;2023-02-14T08:06:19;101239.81;;;5.22;60.80
21803;BME280;18591;47.080;22.214;2023-02-14T08:08:26;101245.19;;;5.24;60.66
21803;BME280;18591;47.080;22.214;2023-02-14T08:10:29;101248.75;;;5.29;60.42
21803;BME280;18591;47.080;22.214;2023-02-14T08:12:31;101242.56;;;5.32;60.21
21803;BME280;18591;47.080;22.214;2023-02-14T08:14:52;101240.72;;;5.23;60.43
21803;BME280;18591;47.080;22.214;2023-02-14T08:16:55;101249.69;;;5.30;60.33
21803;BME280;18591;47.080;22.214;2023-02-14T08:18:57;101240.84;;;5.35;60.09
21803;BME280;18591;47.080;22.214;2023-02-14T08:20:59;101244.44;;;5.37;59.99
21803;BME280;18591;47.080;22.214;2023-02-14T08:23:02;101243.53;;;5.38;59.96
21803;BME280;18591;47.080;22.214;2023-02-14T08:25:05;101247.06;;;5.36;60.40
21803;BME280;18591;47.080;22.214;2023-02-14T08:27:07;101246.16;;;5.32;60.42
21803;BME280;18591;47.080;22.214;2023-02-14T08:29:09;101245.31;;;5.38;59.94
21803;BME280;18591;47.080;22.214;2023-02-14T08:31:11;101251.47;;;5.34;60.44
21803;BME280;18591;47.080;22.214;2023-02-14T08:33:16;101249.66;;;5.28;60.69
21803;BME280;18591;47.080;22.214;2023-02-14T08:35:19;101243.41;;;5.29;60.74
21803;BME280;18591;47.080;22.214;2023-02-14T08:37:21;101251.41;;;5.29;60.97
21803;BME280;18591;47.080;22.214;2023-02-14T08:39:24;101252.34;;;5.30;60.90
21803;BME280;18591;47.080;22.214;2023-02-14T08:41:26;101247.09;;;5.37;60.77
21803;BME280;18591;47.080;22.214;2023-02-14T08:43:28;101245.38;;;5.44;60.39
21803;BME280;18591;47.080;22.214;2023-02-14T08:45:30;101242.78;;;5.50;60.38
21803;BME280;18591;47.080;22.214;2023-02-14T08:47:33;101240.91;;;5.43;60.51
21803;BME280;18591;47.080;22.214;2023-02-14T08:49:36;101249.88;;;5.51;59.95
21803;BME280;18591;47.080;22.214;2023-02-14T08:51:39;101247.31;;;5.62;59.76
21803;BME280;18591;47.080;22.214;2023-02-14T08:53:42;101256.22;;;5.61;59.58
21803;BME280;18591;47.080;22.214;2023-02-14T08:55:44;101247.31;;;5.62;59.64
21803;BME280;18591;47.080;22.214;2023-02-14T08:57:46;101249.94;;;5.56;60.35
21803;BME280;18591;47.080;22.214;2023-02-14T08:59:50;101257.84;;;5.50;60.71
21803;BME280;18591;47.080;22.214;2023-02-14T09:01:52;101259.59;;;5.46;61.04
21803;BME280;18591;47.080;22.214;2023-02-14T09:03:54;101261.47;;;5.53;61.00
21803;BME280;18591;47.080;22.214;2023-02-14T09:06:05;101257.97;;;5.59;61.16
21803;BME280;18591;47.080;22.214;2023-02-14T09:08:07;101254.47;;;5.67;60.58
21803;BME280;18591;47.080;22.214;2023-02-14T09:10:10;101258.06;;;5.71;60.34
21803;BME280;18591;47.080;22.214;2023-02-14T09:12:12;101258.94;;;5.70;60.21
21803;BME280;18591;47.080;22.214;2023-02-14T09:14:14;101253.66;;;5.78;60.38
21803;BME280;18591;47.080;22.214;2023-02-14T09:16:17;101274.94;;;5.70;60.93
21803;BME280;18591;47.080;22.214;2023-02-14T09:18:23;101261.72;;;5.81;60.18
21803;BME280;18591;47.080;22.214;2023-02-14T09:20:25;101260.81;;;5.80;60.00
21803;BME280;18591;47.080;22.214;2023-02-14T09:22:27;101268.84;;;5.85;60.00
21803;BME280;18591;47.080;22.214;2023-02-14T09:24:31;101264.31;;;5.75;60.73
21803;BME280;18591;47.080;22.214;2023-02-14T09:26:34;101259.88;;;5.74;60.63
21803;BME280;18591;47.080;22.214;2023-02-14T09:28:38;101259.91;;;5.80;61.07
21803;BME280;18591;47.080;22.214;2023-02-14T09:30:40;101262.53;;;5.75;61.08
21803;BME280;18591;47.080;22.214;2023-02-14T09:32:43;101266.25;;;5.91;60.56
21803;BME280;18591;47.080;22.214;2023-02-14T09:34:45;101260.09;;;5.94;60.60
21803;BME280;18591;47.080;22.214;2023-02-14T09:36:47;101260.00;;;5.89;60.90
21803;BME280;18591;47.080;22.214;2023-02-14T09:39:08;101253.00;;;5.97;60.81
21803;BME280;18591;47.080;22.214;2023-02-14T09:41:49;101252.97;;;5.94;60.89
21803;BME280;18591;47.080;22.214;2023-02-14T09:44:11;101264.41;;;5.84;62.06
21803;BME280;18591;47.080;22.214;2023-02-14T09:46:17;101261.88;;;5.98;60.97
21803;BME280;18591;47.080;22.214;2023-02-14T09:48:25;101271.69;;;6.00;61.04
21803;BME280;18591;47.080;22.214;2023-02-14T09:50:46;101262.78;;;5.98;61.52
21803;BME280;18591;47.080;22.214;2023-02-14T09:52:52;101261.91;;;5.96;61.52
21803;BME280;18591;47.080;22.214;2023-02-14T09:54:58;101268.19;;;6.04;61.42
21803;BME280;18591;47.080;22.214;2023-02-14T09:57:42;101264.63;;;6.05;61.66
21803;BME280;18591;47.080;22.214;2023-02-14T10:04:40;101264.69;;;6.16;61.18
21803;BME280;18591;47.080;22.214;2023-02-14T10:07:09;101262.06;;;6.21;60.96
21803;BME280;18591;47.080;22.214;2023-02-14T10:11:35;101266.59;;;6.29;60.51
21803;BME280;18591;47.080;22.214;2023-02-14T10:14:00;101260.31;;;6.26;60.66
21803;BME280;18591;47.080;22.214;2023-02-14T10:16:27;101268.31;;;6.26;61.20
21803;BME280;18591;47.080;22.214;2023-02-14T10:18:39;101267.56;;;6.42;61.07
21803;BME280;18591;47.080;22.214;2023-02-14T10:22:58;101256.06;;;6.56;60.55
21803;BME280;18591;47.080;22.214;2023-02-14T10:25:15;101248.94;;;6.50;61.02
21803;BME280;18591;47.080;22.214;2023-02-14T10:27:36;101249.84;;;6.57;60.60
21803;BME280;18591;47.080;22.214;2023-02-14T10:29:41;101254.34;;;6.73;60.44
21803;BME280;18591;47.080;22.214;2023-02-14T10:31:51;101249.03;;;6.78;60.28
21803;BME280;18591;47.080;22.214;2023-02-14T10:38:37;101243.81;;;7.08;58.28
21803;BME280;18591;47.080;22.214;2023-02-14T10:45:19;101249.25;;;7.25;57.07
21803;BME280;18591;47.080;22.214;2023-02-14T10:47:42;101247.44;;;7.29;56.78
21803;BME280;18591;47.080;22.214;2023-02-14T10:50:15;101245.66;;;7.26;56.60
21803;BME280;18591;47.080;22.214;2023-02-14T10:52:35;101242.13;;;7.36;56.22
21803;BME280;18591;47.080;22.214;2023-02-14T10:54:45;101244.78;;;7.32;57.03
21803;BME280;18591;47.080;22.214;2023-02-14T10:57:02;101233.22;;;7.42;57.17
21803;BME280;18591;47.080;22.214;2023-02-14T11:01:20;101236.81;;;7.46;57.26
21803;BME280;18591;47.080;22.214;2023-02-14T11:03:23;101242.16;;;7.56;57.14
21803;BME280;18591;47.080;22.214;2023-02-14T11:05:44;101235.91;;;7.50;56.89
21803;BME280;18591;47.080;22.214;2023-02-14T11:07:47;101243.03;;;7.57;57.29
21803;BME280;18591;47.080;22.214;2023-02-14T11:09:50;101235.03;;;7.61;57.36
21803;BME280;18591;47.080;22.214;2023-02-14T11:11:55;101241.28;;;7.60;57.54
21803;BME280;18591;47.080;22.214;2023-02-14T11:13:58;101228.81;;;7.66;57.40
21803;BME280;18591;47.080;22.214;2023-02-14T11:16:08;101234.16;;;7.67;57.53
21803;BME280;18591;47.080;22.214;2023-02-14T11:18:25;101235.03;;;7.75;56.91
21803;BME280;18591;47.080;22.214;2023-02-14T11:20:32;101236.84;;;7.84;56.91
21803;BME280;18591;47.080;22.214;2023-02-14T11:22:35;101229.69;;;7.81;57.06
21803;BME280;18591;47.080;22.214;2023-02-14T11:24:38;101232.38;;;7.84;56.82
21803;BME280;18591;47.080;22.214;2023-02-14T11:26:47;101233.25;;;7.96;56.06
21803;BME280;18591;47.080;22.214;2023-02-14T11:28:54;101227.88;;;7.99;55.59
21803;BME280;18591;47.080;22.214;2023-02-14T11:30:58;101231.47;;;8.05;56.01
21803;BME280;18591;47.080;22.214;2023-02-14T11:33:02;101230.59;;;8.10;55.91
21803;BME280;18591;47.080;22.214;2023-02-14T11:35:26;101227.00;;;8.03;55.57
21803;BME280;18591;47.080;22.214;2023-02-14T11:37:42;101216.31;;;8.12;54.92
21803;BME280;18591;47.080;22.214;2023-02-14T11:39:48;101212.69;;;8.19;55.07
21803;BME280;18591;47.080;22.214;2023-02-14T11:41:53;101211.81;;;8.20;55.20
21803;BME280;18591;47.080;22.214;2023-02-14T11:44:13;101203.78;;;8.23;54.47
21803;BME280;18591;47.080;22.214;2023-02-14T11:48:26;101195.75;;;8.28;54.59
21803;BME280;18591;47.080;22.214;2023-02-14T11:50:39;101202.88;;;8.34;54.87
21803;BME280;18591;47.080;22.214;2023-02-14T11:52:54;101195.72;;;8.36;54.37
21803;BME280;18591;47.080;22.214;2023-02-14T11:54:58;101186.81;;;8.41;55.07
21803;BME280;18591;47.080;22.214;2023-02-14T11:57:46;101185.00;;;8.45;54.43
21803;BME280;18591;47.080;22.214;2023-02-14T11:59:50;101191.22;;;8.50;54.18
21803;BME280;18591;47.080;22.214;2023-02-14T12:02:01;101182.31;;;8.49;54.82
21803;BME280;18591;47.080;22.214;2023-02-14T12:04:12;101183.19;;;8.59;54.89
21803;BME280;18591;47.080;22.214;2023-02-14T12:06:35;101185.00;;;8.56;54.14
21803;BME280;18591;47.080;22.214;2023-02-14T12:08:37;101178.72;;;8.58;54.07